sensor_id;sensor_type;location;lat;lon;timestamp;pressure;altitude;pressure_sealevel;temperature;humidity
32251;BME280;41295;48.518;9.206;2023-03-08T00:00:51;95896.59;;;5.49;47.28
32251;BME280;41295;48.518;9.206;2023-03-08T00:02:54;95899.91;;;5.30;47.79
32251;BME280;41295;48.518;9.206;2023-03-08T00:04:58;95889.25;;;5.15;48.13
32251;BME280;41295;48.518;9.206;2023-03-08T00:07:03;95893.00;;;5.31;47.97
32251;BME280;41295;48.518;9.206;2023-03-08T00:09:06;95892.31;;;5.25;48.12
32251;BME280;41295;48.518;9.206;2023-03-08T00:11:10;95893.03;;;5.07;48.04
32251;BME280;41295;48.518;9.206;2023-03-08T00:13:13;95905.03;;;5.08;48.58
32251;BME280;41295;48.518;9.206;2023-03-08T00:15:16;95906.09;;;5.26;48.19
32251;BME280;41295;48.518;9.206;2023-03-08T00:17:19;95899.72;;;5.12;48.43
32251;BME280;41295;48.518;9.206;2023-03-08T00:19:22;95893.16;;;5.03;48.71
32251;BME280;41295;48.518;9.206;2023-03-08T00:21:25;95892.69;;;5.16;48.60
32251;BME280;41295;48.518;9.206;2023-03-08T00:23:29;95892.16;;;5.30;48.40
32251;BME280;41295;48.518;9.206;2023-03-08T00:25:31;95896.25;;;5.36;48.12
32251;BME280;41295;48.518;9.206;2023-03-08T00:27:34;95895.94;;;5.21;48.63
32251;BME280;41295;48.518;9.206;2023-03-08T00:29:37;95899.41;;;5.20;48.78
32251;BME280;41295;48.518;9.206;2023-03-08T00:31:40;95904.47;;;5.23;48.51
32251;BME280;41295;48.518;9.206;2023-03-08T00:33:43;95903.50;;;5.26;48.42
32251;BME280;41295;48.518;9.206;2023-03-08T00:35:53;95912.13;;;5.02;48.85
32251;BME280;41295;48.518;9.206;2023-03-08T00:37:56;95913.97;;;4.99;48.74
32251;BME280;41295;48.518;9.206;2023-03-08T00:40:00;95905.72;;;5.13;48.72
32251;BME280;41295;48.518;9.206;2023-03-08T00:42:03;95913.63;;;5.32;48.28
32251;BME280;41295;48.518;9.206;2023-03-08T00:44:05;95915.44;;;5.06;48.70
32251;BME280;41295;48.518;9.206;2023-03-08T00:46:08;95914.44;;;5.10;48.80
32251;BME280;41295;48.518;9.206;2023-03-08T00:48:11;95899.06;;;5.07;48.63
32251;BME280;41295;48.518;9.206;2023-03-08T00:50:14;95898.69;;;5.16;48.45
32251;BME280;41295;48.518;9.206;2023-03-08T00:52:17;95893.34;;;5.21;48.54
32251;BME280;41295;48.518;9.206;2023-03-08T00:54:19;95874.75;;;5.11;48.83
32251;BME280;41295;48.518;9.206;2023-03-08T00:56:23;95871.16;;;5.15;48.38
32251;BME280;41295;48.518;9.206;2023-03-08T00:58:27;95866.72;;;4.97;49.10
32251;BME280;41295;48.518;9.206;2023-03-08T01:00:30;95876.28;;;5.17;48.61
32251;BME280;41295;48.518;9.206;2023-03-08T01:02:33;95878.59;;;5.01;48.85
32251;BME280;41295;48.518;9.206;2023-03-08T01:04:36;95877.88;;;4.97;48.82
32251;BME280;41295;48.518;9.206;2023-03-08T01:06:38;95878.19;;;5.12;48.67
32251;BME280;41295;48.518;9.206;2023-03-08T01:08:41;95871.56;;;5.04;48.85
32251;BME280;41295;48.518;9.206;2023-03-08T01:10:46;95880.97;;;5.07;48.68
32251;BME280;41295;48.518;9.206;2023-03-08T01:12:50;95865.53;;;5.05;48.76
32251;BME280;41295;48.518;9.206;2023-03-08T01:14:53;95870.25;;;4.94;49.06
32251;BME280;41295;48.518;9.206;2023-03-08T01:16:55;95885.25;;;4.84;49.39
32251;BME280;41295;48.518;9.206;2023-03-08T01:18:59;95869.84;;;5.05;49.04
32251;BME280;41295;48.518;9.206;2023-03-08T01:21:03;95868.72;;;4.88;49.34
32251;BME280;41295;48.518;9.206;2023-03-08T01:23:06;95861.03;;;4.87;49.09
32251;BME280;41295;48.518;9.206;2023-03-08T01:25:08;95853.06;;;4.93;48.91
32251;BME280;41295;48.518;9.206;2023-03-08T01:27:11;95852.91;;;4.74;49.28
32251;BME280;41295;48.518;9.206;2023-03-08T01:29:16;95846.06;;;4.73;49.69
32251;BME280;41295;48.518;9.206;2023-03-08T01:31:20;95852.94;;;4.96;49.12
32251;BME280;41295;48.518;9.206;2023-03-08T01:33:23;95843.47;;;4.73;49.38
32251;BME280;41295;48.518;9.206;2023-03-08T01:35:25;95843.22;;;4.80;49.44
32251;BME280;41295;48.518;9.206;2023-03-08T01:37:28;95839.38;;;4.91;49.16
32251;BME280;41295;48.518;9.206;2023-03-08T01:39:31;95833.88;;;4.76;49.37
32251;BME280;41295;48.518;9.206;2023-03-08T01:41:33;95836.66;;;4.94;49.44
32251;BME280;41295;48.518;9.206;2023-03-08T01:43:39;95822.16;;;4.90;49.26
32251;BME280;41295;48.518;9.206;2023-03-08T01:46:05;95820.44;;;4.90;49.37
32251;BME280;41295;48.518;9.206;2023-03-08T01:48:08;95818.09;;;4.84;49.38
32251;BME280;41295;48.518;9.206;2023-03-08T01:50:12;95810.91;;;4.68;49.75
32251;BME280;41295;48.518;9.206;2023-03-08T01:52:17;95803.69;;;4.78;49.82
32251;BME280;41295;48.518;9.206;2023-03-08T01:54:26;95805.06;;;4.87;49.36
32251;BME280;41295;48.518;9.206;2023-03-08T01:56:31;95795.41;;;4.68;50.10
32251;BME280;41295;48.518;9.206;2023-03-08T01:58:34;95792.28;;;4.60;50.01
32251;BME280;41295;48.518;9.206;2023-03-08T02:00:38;95782.75;;;4.62;50.11
32251;BME280;41295;48.518;9.206;2023-03-08T02:02:43;95777.59;;;4.62;50.25
32251;BME280;41295;48.518;9.206;2023-03-08T02:04:50;95770.38;;;4.48;50.29
32251;BME280;41295;48.518;9.206;2023-03-08T02:06:53;95764.56;;;4.41;50.93
32251;BME280;41295;48.518;9.206;2023-03-08T02:08:57;95770.81;;;4.36;50.94
32251;BME280;41295;48.518;9.206;2023-03-08T02:11:04;95767.47;;;4.33;51.09
32251;BME280;41295;48.518;9.206;2023-03-08T02:13:08;95767.06;;;4.44;50.76
32251;BME280;41295;48.518;9.206;2023-03-08T02:15:13;95769.59;;;4.46;50.26
32251;BME280;41295;48.518;9.206;2023-03-08T02:17:16;95763.97;;;4.35;50.74
32251;BME280;41295;48.518;9.206;2023-03-08T02:19:24;95775.19;;;4.33;51.03
32251;BME280;41295;48.518;9.206;2023-03-08T02:21:29;95779.50;;;4.33;50.82
32251;BME280;41295;48.518;9.206;2023-03-08T02:23:33;95776.94;;;4.33;51.20
32251;BME280;41295;48.518;9.206;2023-03-08T02:25:36;95772.69;;;4.32;51.27
32251;BME280;41295;48.518;9.206;2023-03-08T02:27:38;95770.81;;;4.36;50.99
32251;BME280;41295;48.518;9.206;2023-03-08T02:29:41;95757.94;;;4.36;51.37
32251;BME280;41295;48.518;9.206;2023-03-08T02:31:44;95761.31;;;4.36;51.29
32251;BME280;41295;48.518;9.206;2023-03-08T02:33:46;95760.59;;;4.32;51.23
32251;BME280;41295;48.518;9.206;2023-03-08T02:35:50;95755.28;;;4.37;51.55
32251;BME280;41295;48.518;9.206;2023-03-08T02:37:52;95751.72;;;4.40;51.46
32251;BME280;41295;48.518;9.206;2023-03-08T02:39:56;95753.75;;;4.55;51.03
32251;BME280;41295;48.518;9.206;2023-03-08T02:41:59;95743.13;;;4.63;50.79
32251;BME280;41295;48.518;9.206;2023-03-08T02:44:02;95744.34;;;4.77;50.74
32251;BME280;41295;48.518;9.206;2023-03-08T02:46:04;95747.75;;;4.77;50.51
32251;BME280;41295;48.518;9.206;2023-03-08T02:48:07;95741.09;;;4.72;50.44
32251;BME280;41295;48.518;9.206;2023-03-08T02:50:10;95736.63;;;4.53;50.93
32251;BME280;41295;48.518;9.206;2023-03-08T02:52:13;95731.75;;;4.45;51.21
32251;BME280;41295;48.518;9.206;2023-03-08T02:54:15;95719.34;;;4.55;50.99
32251;BME280;41295;48.518;9.206;2023-03-08T02:56:19;95730.13;;;4.42;51.26
32251;BME280;41295;48.518;9.206;2023-03-08T02:58:22;95727.03;;;4.56;51.17
32251;BME280;41295;48.518;9.206;2023-03-08T03:00:25;95730.75;;;4.49;51.72
32251;BME280;41295;48.518;9.206;2023-03-08T03:02:28;95724.00;;;4.45;51.67
32251;BME280;41295;48.518;9.206;2023-03-08T03:04:31;95720.69;;;4.41;51.34
32251;BME280;41295;48.518;9.206;2023-03-08T03:06:34;95714.06;;;4.36;51.85
32251;BME280;41295;48.518;9.206;2023-03-08T03:08:37;95706.41;;;4.32;51.96
32251;BME280;41295;48.518;9.206;2023-03-08T03:10:39;95701.97;;;4.36;52.15
32251;BME280;41295;48.518;9.206;2023-03-08T03:12:43;95700.97;;;4.40;51.66
32251;BME280;41295;48.518;9.206;2023-03-08T03:14:46;95696.81;;;4.36;52.08
32251;BME280;41295;48.518;9.206;2023-03-08T03:16:48;95689.19;;;4.33;52.08
32251;BME280;41295;48.518;9.206;2023-03-08T03:18:51;95681.50;;;4.31;52.22
32251;BME280;41295;48.518;9.206;2023-03-08T03:20:54;95678.88;;;4.33;51.79
32251;BME280;41295;48.518;9.206;2023-03-08T03:23:03;95676.16;;;4.36;52.18
32251;BME280;41295;48.518;9.206;2023-03-08T03:25:07;95675.28;;;4.37;52.10
32251;BME280;41295;48.518;9.206;2023-03-08T03:27:10;95665.25;;;4.52;51.65
32251;BME280;41295;48.518;9.206;2023-03-08T03:29:14;95661.16;;;4.46;51.98
32251;BME280;41295;48.518;9.206;2023-03-08T03:31:18;95655.16;;;4.45;52.00
32251;BME280;41295;48.518;9.206;2023-03-08T03:33:21;95650.66;;;4.51;51.68
32251;BME280;41295;48.518;9.206;2023-03-08T03:35:24;95649.78;;;4.52;51.65
32251;BME280;41295;48.518;9.206;2023-03-08T03:37:26;95648.13;;;4.49;51.70
32251;BME280;41295;48.518;9.206;2023-03-08T03:39:29;95632.66;;;4.49;51.48
32251;BME280;41295;48.518;9.206;2023-03-08T03:41:35;95632.59;;;4.51;51.45
32251;BME280;41295;48.518;9.206;2023-03-08T03:43:38;95624.78;;;4.52;51.40
32251;BME280;41295;48.518;9.206;2023-03-08T03:45:42;95622.13;;;4.54;51.51
32251;BME280;41295;48.518;9.206;2023-03-08T03:47:44;95615.22;;;4.54;51.75
32251;BME280;41295;48.518;9.206;2023-03-08T03:49:48;95617.66;;;4.59;50.99
32251;BME280;41295;48.518;9.206;2023-03-08T03:51:50;95613.44;;;4.56;51.21
32251;BME280;41295;48.518;9.206;2023-03-08T03:53:53;95609.19;;;4.55;51.25
32251;BME280;41295;48.518;9.206;2023-03-08T03:56:02;95622.81;;;4.59;51.02
32251;BME280;41295;48.518;9.206;2023-03-08T03:58:05;95621.97;;;4.59;51.14
32251;BME280;41295;48.518;9.206;2023-03-08T04:00:09;95621.84;;;4.62;51.28
32251;BME280;41295;48.518;9.206;2023-03-08T04:02:13;95620.03;;;4.64;51.23
32251;BME280;41295;48.518;9.206;2023-03-08T04:04:19;95609.63;;;4.65;51.20
32251;BME280;41295;48.518;9.206;2023-03-08T04:06:22;95608.69;;;4.68;50.95
32251;BME280;41295;48.518;9.206;2023-03-08T04:08:25;95601.81;;;4.67;50.72
32251;BME280;41295;48.518;9.206;2023-03-08T04:10:30;95601.59;;;4.73;50.80
32251;BME280;41295;48.518;9.206;2023-03-08T04:12:32;95595.63;;;4.71;50.55
32251;BME280;41295;48.518;9.206;2023-03-08T04:14:35;95593.06;;;4.71;50.83
32251;BME280;41295;48.518;9.206;2023-03-08T04:16:40;95592.16;;;4.72;50.92
32251;BME280;41295;48.518;9.206;2023-03-08T04:18:44;95595.63;;;4.71;51.47
32251;BME280;41295;48.518;9.206;2023-03-08T04:20:47;95597.44;;;4.69;51.13
32251;BME280;41295;48.518;9.206;2023-03-08T04:22:50;95600.94;;;4.68;51.11
32251;BME280;41295;48.518;9.206;2023-03-08T04:24:52;95594.06;;;4.67;51.15
32251;BME280;41295;48.518;9.206;2023-03-08T04:26:55;95600.22;;;4.64;51.34
32251;BME280;41295;48.518;9.206;2023-03-08T04:28:57;95606.28;;;4.63;51.14
32251;BME280;41295;48.518;9.206;2023-03-08T04:31:10;95597.56;;;4.66;51.27
32251;BME280;41295;48.518;9.206;2023-03-08T04:33:13;95620.81;;;4.66;50.90
32251;BME280;41295;48.518;9.206;2023-03-08T04:35:17;95619.19;;;4.63;51.23
32251;BME280;41295;48.518;9.206;2023-03-08T04:37:21;95613.06;;;4.66;51.55
32251;BME280;41295;48.518;9.206;2023-03-08T04:39:24;95611.44;;;4.63;51.74
32251;BME280;41295;48.518;9.206;2023-03-08T04:41:26;95615.78;;;4.63;51.84
32251;BME280;41295;48.518;9.206;2023-03-08T04:43:29;95597.72;;;4.63;51.69
32251;BME280;41295;48.518;9.206;2023-03-08T04:45:32;95596.78;;;4.64;51.93
32251;BME280;41295;48.518;9.206;2023-03-08T04:47:34;95595.13;;;4.63;51.98
32251;BME280;41295;48.518;9.206;2023-03-08T04:49:40;95586.53;;;4.62;51.85
32251;BME280;41295;48.518;9.206;2023-03-08T04:51:44;95582.31;;;4.60;52.47
32251;BME280;41295;48.518;9.206;2023-03-08T04:53:46;95580.59;;;4.60;52.42
32251;BME280;41295;48.518;9.206;2023-03-08T04:55:52;95569.47;;;4.58;52.47
32251;BME280;41295;48.518;9.206;2023-03-08T04:57:55;95561.66;;;4.60;52.57
32251;BME280;41295;48.518;9.206;2023-03-08T04:59:57;95559.50;;;4.71;52.19
32251;BME280;41295;48.518;9.206;2023-03-08T05:02:03;95552.53;;;4.73;52.26
32251;BME280;41295;48.518;9.206;2023-03-08T05:04:09;95552.69;;;4.68;52.22
32251;BME280;41295;48.518;9.206;2023-03-08T05:06:12;95547.66;;;4.65;52.06
32251;BME280;41295;48.518;9.206;2023-03-08T05:08:17;95543.41;;;4.64;52.29
32251;BME280;41295;48.518;9.206;2023-03-08T05:10:20;95544.44;;;4.60;52.33
32251;BME280;41295;48.518;9.206;2023-03-08T05:12:22;95541.59;;;4.87;51.07
32251;BME280;41295;48.518;9.206;2023-03-08T05:14:28;95545.66;;;4.72;51.56
32251;BME280;41295;48.518;9.206;2023-03-08T05:16:30;95540.63;;;4.69;51.75
32251;BME280;41295;48.518;9.206;2023-03-08T05:18:33;95533.59;;;4.73;51.94
32251;BME280;41295;48.518;9.206;2023-03-08T05:20:36;95542.38;;;4.68;52.04
32251;BME280;41295;48.518;9.206;2023-03-08T05:22:38;95549.88;;;4.75;51.84
32251;BME280;41295;48.518;9.206;2023-03-08T05:24:59;95546.94;;;4.82;51.44
32251;BME280;41295;48.518;9.206;2023-03-08T05:27:02;95545.66;;;4.72;51.96
32251;BME280;41295;48.518;9.206;2023-03-08T05:29:05;95539.63;;;4.73;51.84
32251;BME280;41295;48.518;9.206;2023-03-08T05:31:10;95540.63;;;4.90;51.28
32251;BME280;41295;48.518;9.206;2023-03-08T05:33:14;95537.78;;;4.75;51.39
32251;BME280;41295;48.518;9.206;2023-03-08T05:35:17;95536.19;;;4.73;51.88
32251;BME280;41295;48.518;9.206;2023-03-08T05:37:19;95530.16;;;4.72;51.86
32251;BME280;41295;48.518;9.206;2023-03-08T05:39:28;95518.31;;;4.68;52.29
32251;BME280;41295;48.518;9.206;2023-03-08T05:41:32;95508.81;;;4.68;52.37
32251;BME280;41295;48.518;9.206;2023-03-08T05:43:35;95505.41;;;4.68;52.11
32251;BME280;41295;48.518;9.206;2023-03-08T05:45:37;95505.34;;;4.69;52.54
32251;BME280;41295;48.518;9.206;2023-03-08T05:47:40;95500.94;;;4.72;52.55
32251;BME280;41295;48.518;9.206;2023-03-08T05:49:43;95495.88;;;4.68;52.79
32251;BME280;41295;48.518;9.206;2023-03-08T05:51:45;95499.38;;;4.67;52.58
32251;BME280;41295;48.518;9.206;2023-03-08T05:53:48;95495.81;;;4.70;52.44
32251;BME280;41295;48.518;9.206;2023-03-08T05:55:50;95493.19;;;4.72;52.68
32251;BME280;41295;48.518;9.206;2023-03-08T05:57:57;95490.63;;;4.72;52.59
32251;BME280;41295;48.518;9.206;2023-03-08T05:59:59;95491.38;;;4.74;52.85
32251;BME280;41295;48.518;9.206;2023-03-08T06:02:02;95493.84;;;4.77;52.90
32251;BME280;41295;48.518;9.206;2023-03-08T06:04:04;95492.16;;;4.76;53.32
32251;BME280;41295;48.518;9.206;2023-03-08T06:06:07;95489.56;;;4.76;53.23
32251;BME280;41295;48.518;9.206;2023-03-08T06:08:10;95490.41;;;4.76;53.22
32251;BME280;41295;48.518;9.206;2023-03-08T06:10:12;95487.75;;;4.78;53.41
32251;BME280;41295;48.518;9.206;2023-03-08T06:12:15;95486.03;;;4.78;53.91
32251;BME280;41295;48.518;9.206;2023-03-08T06:14:19;95491.97;;;4.80;53.72
32251;BME280;41295;48.518;9.206;2023-03-08T06:16:22;95487.63;;;4.81;53.35
32251;BME280;41295;48.518;9.206;2023-03-08T06:18:25;95487.50;;;4.84;53.52
32251;BME280;41295;48.518;9.206;2023-03-08T06:20:28;95485.66;;;4.86;53.38
32251;BME280;41295;48.518;9.206;2023-03-08T06:22:31;95493.50;;;4.85;53.60
32251;BME280;41295;48.518;9.206;2023-03-08T06:24:34;95482.13;;;4.89;53.90
32251;BME280;41295;48.518;9.206;2023-03-08T06:26:36;95483.88;;;4.88;54.00
32251;BME280;41295;48.518;9.206;2023-03-08T06:28:39;95482.06;;;4.90;53.79
32251;BME280;41295;48.518;9.206;2023-03-08T06:30:45;95466.50;;;4.92;53.85
32251;BME280;41295;48.518;9.206;2023-03-08T06:32:49;95461.97;;;4.97;53.78
32251;BME280;41295;48.518;9.206;2023-03-08T06:34:52;95474.06;;;4.97;53.99
32251;BME280;41295;48.518;9.206;2023-03-08T06:36:54;95463.66;;;4.98;54.46
32251;BME280;41295;48.518;9.206;2023-03-08T06:39:00;95459.88;;;5.05;54.32
32251;BME280;41295;48.518;9.206;2023-03-08T06:41:03;95462.50;;;5.04;54.34
32251;BME280;41295;48.518;9.206;2023-03-08T06:43:06;95463.22;;;5.08;54.70
32251;BME280;41295;48.518;9.206;2023-03-08T06:45:10;95455.47;;;5.08;54.85
32251;BME280;41295;48.518;9.206;2023-03-08T06:47:14;95444.16;;;5.10;54.78
32251;BME280;41295;48.518;9.206;2023-03-08T06:49:16;95453.59;;;5.11;54.68
32251;BME280;41295;48.518;9.206;2023-03-08T06:51:19;95446.59;;;5.13;54.63
32251;BME280;41295;48.518;9.206;2023-03-08T06:53:22;95435.31;;;5.16;54.74
32251;BME280;41295;48.518;9.206;2023-03-08T06:55:24;95437.66;;;5.21;54.64
32251;BME280;41295;48.518;9.206;2023-03-08T06:57:27;95435.84;;;5.23;54.66
32251;BME280;41295;48.518;9.206;2023-03-08T06:59:30;95432.78;;;5.34;54.50
32251;BME280;41295;48.518;9.206;2023-03-08T07:01:32;95419.09;;;5.32;54.61
32251;BME280;41295;48.518;9.206;2023-03-08T07:03:36;95415.59;;;5.33;54.71
32251;BME280;41295;48.518;9.206;2023-03-08T07:05:40;95416.44;;;5.33;54.97
32251;BME280;41295;48.518;9.206;2023-03-08T07:07:43;95420.47;;;5.39;55.19
32251;BME280;41295;48.518;9.206;2023-03-08T07:09:45;95415.38;;;5.37;55.22
32251;BME280;41295;48.518;9.206;2023-03-08T07:11:48;95417.06;;;5.38;55.08
32251;BME280;41295;48.518;9.206;2023-03-08T07:13:51;95409.22;;;5.40;55.04
32251;BME280;41295;48.518;9.206;2023-03-08T07:15:54;95399.66;;;5.42;55.16
32251;BME280;41295;48.518;9.206;2023-03-08T07:17:56;95396.09;;;5.45;55.21
32251;BME280;41295;48.518;9.206;2023-03-08T07:20:00;95388.25;;;5.46;55.09
32251;BME280;41295;48.518;9.206;2023-03-08T07:22:05;95387.34;;;5.47;55.23
32251;BME280;41295;48.518;9.206;2023-03-08T07:24:08;95387.25;;;5.49;55.30
32251;BME280;41295;48.518;9.206;2023-03-08T07:26:10;95383.72;;;5.51;54.95
32251;BME280;41295;48.518;9.206;2023-03-08T07:28:13;95381.75;;;5.57;54.75
32251;BME280;41295;48.518;9.206;2023-03-08T07:30:16;95382.59;;;5.57;54.84
32251;BME280;41295;48.518;9.206;2023-03-08T07:32:19;95379.94;;;5.59;55.31
32251;BME280;41295;48.518;9.206;2023-03-08T07:34:23;95375.28;;;5.65;55.14
32251;BME280;41295;48.518;9.206;2023-03-08T07:36:27;95373.47;;;5.68;55.03
32251;BME280;41295;48.518;9.206;2023-03-08T07:38:30;95380.31;;;5.69;55.09
32251;BME280;41295;48.518;9.206;2023-03-08T07:40:32;95362.97;;;5.71;55.12
32251;BME280;41295;48.518;9.206;2023-03-08T07:42:35;95360.91;;;5.77;55.02
32251;BME280;41295;48.518;9.206;2023-03-08T07:44:38;95351.50;;;5.76;54.54
32251;BME280;41295;48.518;9.206;2023-03-08T07:46:40;95350.72;;;5.74;54.73
32251;BME280;41295;48.518;9.206;2023-03-08T07:48:43;95345.56;;;5.74;54.85
32251;BME280;41295;48.518;9.206;2023-03-08T07:50:46;95339.41;;;5.77;54.86
32251;BME280;41295;48.518;9.206;2023-03-08T07:52:50;95342.72;;;5.79;55.16
32251;BME280;41295;48.518;9.206;2023-03-08T07:54:53;95336.56;;;5.82;55.08
32251;BME280;41295;48.518;9.206;2023-03-08T07:56:55;95339.94;;;5.84;55.00
32251;BME280;41295;48.518;9.206;2023-03-08T07:59:00;95343.13;;;5.89;54.89
32251;BME280;41295;48.518;9.206;2023-03-08T08:01:07;95325.91;;;5.88;54.77
32251;BME280;41295;48.518;9.206;2023-03-08T08:03:10;95325.00;;;5.89;54.64
32251;BME280;41295;48.518;9.206;2023-03-08T08:05:12;95319.69;;;5.92;54.15
32251;BME280;41295;48.518;9.206;2023-03-08T08:07:16;95316.94;;;5.95;54.21
32251;BME280;41295;48.518;9.206;2023-03-08T08:09:20;95315.34;;;5.93;54.27
32251;BME280;41295;48.518;9.206;2023-03-08T08:11:24;95298.22;;;5.90;54.26
32251;BME280;41295;48.518;9.206;2023-03-08T08:13:26;95295.50;;;5.93;54.29
32251;BME280;41295;48.518;9.206;2023-03-08T08:15:29;95290.31;;;5.93;54.29
32251;BME280;41295;48.518;9.206;2023-03-08T08:17:32;95286.13;;;5.90;54.33
32251;BME280;41295;48.518;9.206;2023-03-08T08:19:35;95262.84;;;5.90;54.30
32251;BME280;41295;48.518;9.206;2023-03-08T08:21:38;95252.50;;;5.90;54.32
32251;BME280;41295;48.518;9.206;2023-03-08T08:23:41;95257.66;;;5.90;54.45
32251;BME280;41295;48.518;9.206;2023-03-08T08:25:45;95248.94;;;5.93;54.86
32251;BME280;41295;48.518;9.206;2023-03-08T08:27:50;95248.84;;;5.95;54.78
32251;BME280;41295;48.518;9.206;2023-03-08T08:29:53;95240.06;;;5.97;54.58
32251;BME280;41295;48.518;9.206;2023-03-08T08:31:56;95232.31;;;5.97;54.75
32251;BME280;41295;48.518;9.206;2023-03-08T08:33:59;95234.00;;;5.98;54.76
32251;BME280;41295;48.518;9.206;2023-03-08T08:36:03;95228.66;;;6.01;54.92
32251;BME280;41295;48.518;9.206;2023-03-08T08:38:06;95224.94;;;6.07;55.14
32251;BME280;41295;48.518;9.206;2023-03-08T08:40:10;95219.47;;;6.30;54.81
32251;BME280;41295;48.518;9.206;2023-03-08T08:42:14;95225.56;;;6.29;55.19
32251;BME280;41295;48.518;9.206;2023-03-08T08:44:17;95226.56;;;6.26;55.56
32251;BME280;41295;48.518;9.206;2023-03-08T08:46:19;95222.31;;;6.25;55.92
32251;BME280;41295;48.518;9.206;2023-03-08T08:48:22;95222.22;;;6.27;56.06
32251;BME280;41295;48.518;9.206;2023-03-08T08:50:25;95210.94;;;6.28;56.53
32251;BME280;41295;48.518;9.206;2023-03-08T08:52:28;95207.59;;;6.42;56.87
32251;BME280;41295;48.518;9.206;2023-03-08T08:54:30;95212.09;;;6.38;57.11
32251;BME280;41295;48.518;9.206;2023-03-08T08:56:34;95206.25;;;6.50;56.88
32251;BME280;41295;48.518;9.206;2023-03-08T08:58:44;95198.75;;;6.46;57.00
32251;BME280;41295;48.518;9.206;2023-03-08T09:00:48;95193.66;;;6.60;56.95
32251;BME280;41295;48.518;9.206;2023-03-08T09:02:51;95193.91;;;6.56;56.92
32251;BME280;41295;48.518;9.206;2023-03-08T09:04:54;95196.56;;;6.70;56.40
32251;BME280;41295;48.518;9.206;2023-03-08T09:06:56;95185.44;;;6.68;56.25
32251;BME280;41295;48.518;9.206;2023-03-08T09:08:59;95193.41;;;6.65;56.60
32251;BME280;41295;48.518;9.206;2023-03-08T09:11:03;95199.03;;;6.57;56.75
32251;BME280;41295;48.518;9.206;2023-03-08T09:13:06;95195.00;;;6.52;57.17
32251;BME280;41295;48.518;9.206;2023-03-08T09:15:10;95205.59;;;6.47;56.86
32251;BME280;41295;48.518;9.206;2023-03-08T09:17:13;95209.19;;;6.44;57.17
32251;BME280;41295;48.518;9.206;2023-03-08T09:19:15;95209.38;;;6.41;57.44
32251;BME280;41295;48.518;9.206;2023-03-08T09:21:18;95203.53;;;6.37;57.26
32251;BME280;41295;48.518;9.206;2023-03-08T09:23:21;95201.94;;;6.35;57.42
32251;BME280;41295;48.518;9.206;2023-03-08T09:25:23;95204.59;;;6.33;57.62
32251;BME280;41295;48.518;9.206;2023-03-08T09:27:26;95199.34;;;6.35;57.54
32251;BME280;41295;48.518;9.206;2023-03-08T09:29:29;95196.00;;;6.33;57.64
32251;BME280;41295;48.518;9.206;2023-03-08T09:31:34;95191.56;;;6.35;57.94
32251;BME280;41295;48.518;9.206;2023-03-08T09:33:38;95195.16;;;6.65;57.41
32251;BME280;41295;48.518;9.206;2023-03-08T09:35:40;95181.69;;;6.74;57.50
32251;BME280;41295;48.518;9.206;2023-03-08T09:37:43;95173.94;;;7.05;57.92
32251;BME280;41295;48.518;9.206;2023-03-08T09:39:49;95179.66;;;6.79;58.72
32251;BME280;41295;48.518;9.206;2023-03-08T09:41:53;95172.44;;;7.31;60.04
32251;BME280;41295;48.518;9.206;2023-03-08T09:44:11;95180.13;;;7.48;61.11
32251;BME280;41295;48.518;9.206;2023-03-08T09:46:21;95173.09;;;7.50;61.51
32251;BME280;41295;48.518;9.206;2023-03-08T09:48:28;95158.84;;;7.57;61.67
32251;BME280;41295;48.518;9.206;2023-03-08T09:50:36;95156.72;;;7.64;61.08
32251;BME280;41295;48.518;9.206;2023-03-08T09:52:42;95149.50;;;7.69;60.96
32251;BME280;41295;48.518;9.206;2023-03-08T09:54:49;95150.25;;;7.71;61.06
32251;BME280;41295;48.518;9.206;2023-03-08T09:56:53;95151.25;;;7.83;60.51
32251;BME280;41295;48.518;9.206;2023-03-08T09:58:58;95149.00;;;8.06;60.97
32251;BME280;41295;48.518;9.206;2023-03-08T10:01:14;95138.81;;;8.03;61.60
32251;BME280;41295;48.518;9.206;2023-03-08T10:03:52;95142.34;;;8.02;62.10
32251;BME280;41295;48.518;9.206;2023-03-08T10:06:03;95137.41;;;8.12;61.36
32251;BME280;41295;48.518;9.206;2023-03-08T10:08:13;95141.19;;;8.21;61.85
32251;BME280;41295;48.518;9.206;2023-03-08T10:10:26;95143.44;;;8.27;61.32
32251;BME280;41295;48.518;9.206;2023-03-08T10:12:31;95133.03;;;8.27;61.55
32251;BME280;41295;48.518;9.206;2023-03-08T10:14:41;95140.00;;;8.26;62.62
32251;BME280;41295;48.518;9.206;2023-03-08T10:16:47;95147.56;;;8.29;62.68
32251;BME280;41295;48.518;9.206;2023-03-08T10:18:55;95138.97;;;8.29;62.48
32251;BME280;41295;48.518;9.206;2023-03-08T10:21:00;95138.41;;;8.24;63.21
32251;BME280;41295;48.518;9.206;2023-03-08T10:23:11;95133.72;;;8.43;63.38
32251;BME280;41295;48.518;9.206;2023-03-08T10:25:21;95139.84;;;8.42;63.42
32251;BME280;41295;48.518;9.206;2023-03-08T10:27:26;95146.84;;;8.27;63.61
32251;BME280;41295;48.518;9.206;2023-03-08T10:29:29;95135.56;;;8.56;63.86
32251;BME280;41295;48.518;9.206;2023-03-08T10:31:32;95143.19;;;8.45;63.82
32251;BME280;41295;48.518;9.206;2023-03-08T10:33:35;95138.81;;;8.45;64.35
32251;BME280;41295;48.518;9.206;2023-03-08T10:35:53;95144.38;;;8.53;64.37
32251;BME280;41295;48.518;9.206;2023-03-08T10:37:56;95137.69;;;8.64;64.53
32251;BME280;41295;48.518;9.206;2023-03-08T10:40:01;95141.88;;;8.66;64.59
32251;BME280;41295;48.518;9.206;2023-03-08T10:42:13;95135.41;;;8.72;64.96
32251;BME280;41295;48.518;9.206;2023-03-08T10:44:29;95127.19;;;8.65;64.96
32251;BME280;41295;48.518;9.206;2023-03-08T10:46:45;95119.53;;;8.77;65.08
32251;BME280;41295;48.518;9.206;2023-03-08T10:48:48;95111.13;;;8.86;65.06
32251;BME280;41295;48.518;9.206;2023-03-08T10:50:59;95101.81;;;8.97;64.64
32251;BME280;41295;48.518;9.206;2023-03-08T10:53:16;95099.28;;;8.95;65.03
32251;BME280;41295;48.518;9.206;2023-03-08T10:55:20;95096.38;;;8.87;65.12
32251;BME280;41295;48.518;9.206;2023-03-08T10:57:23;95094.88;;;9.23;65.00
32251;BME280;41295;48.518;9.206;2023-03-08T10:59:28;95101.63;;;9.26;64.69
32251;BME280;41295;48.518;9.206;2023-03-08T11:01:46;95127.84;;;9.36;64.10
32251;BME280;41295;48.518;9.206;2023-03-08T11:03:57;95102.47;;;9.40;64.16
32251;BME280;41295;48.518;9.206;2023-03-08T11:06:03;95119.72;;;9.41;64.09